createdAt,value
2023-05-02T00:00:08.262Z,38.76
2023-05-02T00:02:59.444Z,38.67
2023-05-02T00:05:31.106Z,38.79
2023-05-02T00:08:02.341Z,38.93
2023-05-02T00:10:33.021Z,38.98
2023-05-02T00:13:04.203Z,39.13
2023-05-02T00:15:34.871Z,39.09
2023-05-02T00:18:05.711Z,39.24
2023-05-02T00:20:36.524Z,39.20
2023-05-02T00:23:07.565Z,39.45
2023-05-02T00:25:38.311Z,39.40
2023-05-02T00:28:09.442Z,39.43
2023-05-02T00:30:40.255Z,39.51
2023-05-02T00:33:12.670Z,39.50
2023-05-02T00:35:43.535Z,39.50
2023-05-02T00:38:14.333Z,39.43
2023-05-02T00:40:46.406Z,39.46
2023-05-02T00:43:17.787Z,39.64
2023-05-02T00:45:48.788Z,39.70
2023-05-02T00:48:21.837Z,39.74
2023-05-02T00:50:52.554Z,39.64
2023-05-02T00:53:23.469Z,39.57
2023-05-02T00:55:54.475Z,39.71
2023-05-02T00:58:25.252Z,39.54
2023-05-02T01:01:04.591Z,39.72
2023-05-02T01:03:37.055Z,39.82
2023-05-02T01:06:09.767Z,39.82
2023-05-02T01:08:41.843Z,39.94
2023-05-02T01:11:15.337Z,40.12
2023-05-02T01:13:46.311Z,40.10
2023-05-02T01:16:17.350Z,40.11
2023-05-02T01:18:48.305Z,40.26
2023-05-02T01:21:19.107Z,40.26
2023-05-02T01:23:54.171Z,40.42
2023-05-02T01:26:28.647Z,40.30
2023-05-02T01:29:00.723Z,40.31
2023-05-02T01:31:33.189Z,40.40
2023-05-02T01:34:04.612Z,40.52
2023-05-02T01:36:35.500Z,40.55
2023-05-02T01:39:07.546Z,40.54
2023-05-02T01:41:39.135Z,40.51
2023-05-02T01:44:10.007Z,40.64
2023-05-02T01:46:41.735Z,40.45
2023-05-02T01:49:12.742Z,40.50
2023-05-02T01:51:45.533Z,40.50
2023-05-02T01:54:16.748Z,40.52
2023-05-02T01:56:47.845Z,40.44
2023-05-02T01:59:20.236Z,40.45
2023-05-02T02:01:51.718Z,40.55
2023-05-02T02:04:22.695Z,40.58
2023-05-02T02:06:55.387Z,40.61
2023-05-02T02:09:26.386Z,40.64
2023-05-02T02:11:59.871Z,40.66
2023-05-02T02:14:33.123Z,40.69
2023-05-02T02:17:05.482Z,40.69
2023-05-02T02:19:36.711Z,40.58
2023-05-02T02:22:07.705Z,40.73
2023-05-02T02:24:38.556Z,40.58
2023-05-02T02:27:09.355Z,40.52
2023-05-02T02:29:40.175Z,40.73
2023-05-02T02:32:11.038Z,40.52
2023-05-02T02:34:41.983Z,40.56
2023-05-02T02:37:14.521Z,40.51
2023-05-02T02:39:47.831Z,40.32
2023-05-02T02:42:20.741Z,40.37
2023-05-02T02:44:54.378Z,40.29
2023-05-02T02:47:28.399Z,40.29
2023-05-02T02:50:02.547Z,40.33
2023-05-02T02:52:35.179Z,40.26
2023-05-02T02:55:09.674Z,40.39
2023-05-02T02:57:41.206Z,40.32
2023-05-02T03:00:13.822Z,40.37
2023-05-02T03:02:44.762Z,40.35
2023-05-02T03:05:15.704Z,40.33
2023-05-02T03:07:46.594Z,40.21
2023-05-02T03:10:17.481Z,40.11
2023-05-02T03:12:49.244Z,39.97
2023-05-02T03:15:26.962Z,40.21
2023-05-02T03:17:57.857Z,40.20
2023-05-02T03:20:29.295Z,40.20
2023-05-02T03:23:00.203Z,40.23
2023-05-02T03:25:48.679Z,40.22
2023-05-02T03:28:19.362Z,40.33
2023-05-02T03:30:50.287Z,40.25
2023-05-02T03:33:21.864Z,40.17
2023-05-02T03:35:52.893Z,40.21
2023-05-02T03:38:23.896Z,40.11
2023-05-02T03:40:54.808Z,40.07
2023-05-02T03:43:25.690Z,40.24
2023-05-02T03:45:56.386Z,40.20
2023-05-02T03:48:27.994Z,40.24
2023-05-02T03:50:58.860Z,40.03
2023-05-02T03:53:29.892Z,40.07
2023-05-02T03:56:01.088Z,40.19
2023-05-02T03:58:32.017Z,40.08
2023-05-02T04:01:03.040Z,40.07
2023-05-02T04:03:34.127Z,40.22
2023-05-02T04:06:05.215Z,40.20
2023-05-02T04:08:37.096Z,40.11
2023-05-02T04:11:08.356Z,40.22
2023-05-02T04:13:39.400Z,40.22
2023-05-02T04:16:10.394Z,39.94
2023-05-02T04:18:41.310Z,39.84
2023-05-02T04:21:12.224Z,39.85
2023-05-02T04:23:43.181Z,39.82
2023-05-02T04:26:13.988Z,39.94
2023-05-02T04:28:44.773Z,39.98
2023-05-02T04:31:15.764Z,39.95
2023-05-02T04:33:49.103Z,39.86
2023-05-02T04:43:04.204Z,39.91
2023-05-02T04:45:35.375Z,39.98
2023-05-02T04:48:06.660Z,40.00
2023-05-02T04:50:37.528Z,40.07
2023-05-02T04:53:08.278Z,39.95
2023-05-02T04:55:41.597Z,39.88
2023-05-02T04:58:12.888Z,39.96
2023-05-02T05:00:44.525Z,39.94
2023-05-02T05:03:15.543Z,39.96
2023-05-02T05:05:46.447Z,39.98
2023-05-02T05:08:17.510Z,40.00
2023-05-02T05:10:48.359Z,40.00
2023-05-02T05:13:19.289Z,40.03
2023-05-02T05:15:50.511Z,40.04
2023-05-02T05:18:21.473Z,40.11
2023-05-02T05:20:52.184Z,40.09
2023-05-02T05:23:22.931Z,40.06
2023-05-02T05:25:53.728Z,40.18
2023-05-02T05:28:24.794Z,40.10
2023-05-02T05:30:55.728Z,40.03
2023-05-02T05:33:26.761Z,40.05
2023-05-02T05:35:57.648Z,39.86
2023-05-02T05:38:28.670Z,39.99
2023-05-02T05:40:59.562Z,40.06
2023-05-02T05:43:36.028Z,40.01
2023-05-02T05:46:10.325Z,39.86
2023-05-02T05:48:41.364Z,39.84
2023-05-02T05:51:12.313Z,39.78
2023-05-02T05:53:43.255Z,39.86
2023-05-02T05:56:14.600Z,39.94
2023-05-02T05:58:48.961Z,40.01
2023-05-02T06:01:19.891Z,39.97
2023-05-02T06:03:52.194Z,39.87
2023-05-02T06:06:23.205Z,39.80
2023-05-02T06:08:54.023Z,39.83
2023-05-02T06:11:26.357Z,39.84
2023-05-02T06:13:57.229Z,39.80
2023-05-02T06:16:28.105Z,39.83
2023-05-02T06:19:00.105Z,39.88
2023-05-02T06:21:31.555Z,39.88
2023-05-02T06:24:02.461Z,39.81
2023-05-02T06:26:33.312Z,39.74
2023-05-02T06:29:04.282Z,39.71
2023-05-02T06:31:35.291Z,39.72
2023-05-02T06:34:06.187Z,39.67
2023-05-02T06:36:36.985Z,39.54
2023-05-02T06:39:13.244Z,39.53
2023-05-02T06:41:44.117Z,39.35
2023-05-02T06:44:14.889Z,39.35
2023-05-02T06:46:45.880Z,39.35
2023-05-02T06:49:16.840Z,39.31
2023-05-02T06:51:47.791Z,39.26
2023-05-02T06:54:19.000Z,39.14
2023-05-02T06:56:53.215Z,38.94
2023-05-02T06:59:26.487Z,38.82
2023-05-02T07:01:57.430Z,38.84
2023-05-02T07:04:28.505Z,38.79
2023-05-02T07:07:01.739Z,38.64
2023-05-02T07:09:32.855Z,38.64
2023-05-02T07:12:06.600Z,38.44
2023-05-02T07:14:37.976Z,38.06
2023-05-02T07:17:08.829Z,37.91
2023-05-02T07:19:39.754Z,38.05
2023-05-02T07:22:10.781Z,37.89
2023-05-02T07:24:43.123Z,37.69
2023-05-02T07:27:14.470Z,37.62
2023-05-02T07:29:45.529Z,37.68
2023-05-02T07:32:17.951Z,37.26
2023-05-02T07:34:48.945Z,37.14
2023-05-02T07:37:19.624Z,37.20
2023-05-02T07:39:52.751Z,37.05
2023-05-02T07:42:23.724Z,37.01
2023-05-02T07:44:54.624Z,36.74
2023-05-02T07:47:28.178Z,36.64
2023-05-02T07:49:59.661Z,36.73
2023-05-02T07:52:30.975Z,36.60
2023-05-02T07:55:01.842Z,36.43
2023-05-02T07:57:32.737Z,36.40
2023-05-02T08:00:03.878Z,36.01
2023-05-02T08:02:36.863Z,35.92
2023-05-02T08:05:08.537Z,35.82
2023-05-02T08:07:39.591Z,35.76
2023-05-02T08:10:11.695Z,35.75
2023-05-02T08:12:42.564Z,35.68
2023-05-02T08:15:14.529Z,35.61
2023-05-02T08:17:45.266Z,35.44
2023-05-02T08:20:16.368Z,35.31
2023-05-02T08:22:47.208Z,35.14
2023-05-02T08:25:18.002Z,35.22
2023-05-02T08:27:48.828Z,35.08
2023-05-02T08:30:19.840Z,34.73
2023-05-02T08:32:50.838Z,34.36
2023-05-02T08:35:22.034Z,34.15
2023-05-02T08:37:52.959Z,34.18
2023-05-02T08:40:33.936Z,33.89
2023-05-02T08:43:12.408Z,33.91
2023-05-02T08:45:43.742Z,33.81
2023-05-02T08:48:17.110Z,33.53
2023-05-02T08:50:48.696Z,33.31
2023-05-02T08:53:19.547Z,33.24
2023-05-02T08:55:51.187Z,32.98
2023-05-02T08:58:22.026Z,32.49
2023-05-02T09:00:53.047Z,32.53
2023-05-02T09:03:25.331Z,32.44
2023-05-02T09:06:01.315Z,32.19
2023-05-02T09:08:32.236Z,32.23
2023-05-02T09:11:03.368Z,32.01
2023-05-02T09:13:35.380Z,31.89
2023-05-02T09:16:06.977Z,31.86
2023-05-02T09:18:38.657Z,31.51
2023-05-02T09:21:10.078Z,31.42
2023-05-02T09:23:42.914Z,31.17
2023-05-02T09:26:17.537Z,31.18
2023-05-02T09:28:48.951Z,31.08
2023-05-02T09:31:43.552Z,31.13
2023-05-02T09:34:11.760Z,31.10
2023-05-02T09:36:43.265Z,30.83
2023-05-02T09:39:15.293Z,30.70
2023-05-02T09:41:47.152Z,30.47
2023-05-02T09:44:18.539Z,30.24
2023-05-02T09:46:50.351Z,30.03
2023-05-02T09:49:21.478Z,30.08
2023-05-02T09:51:52.282Z,29.95
2023-05-02T09:54:38.000Z,29.94
2023-05-02T09:57:11.263Z,29.84
2023-05-02T09:59:42.538Z,29.56
2023-05-02T10:02:13.574Z,29.48
2023-05-02T10:04:44.437Z,29.41
2023-05-02T10:07:16.221Z,29.20
2023-05-02T10:09:47.013Z,28.90
2023-05-02T10:12:17.845Z,28.89
2023-05-02T10:14:50.169Z,28.80
2023-05-02T10:17:24.390Z,28.61
2023-05-02T10:19:56.129Z,28.59
2023-05-02T10:22:27.572Z,28.46
2023-05-02T10:25:01.221Z,28.37
2023-05-02T10:27:32.932Z,27.76
2023-05-02T10:30:06.593Z,27.82
2023-05-02T10:32:37.965Z,27.93
2023-05-02T10:35:09.346Z,27.56
2023-05-02T10:37:40.156Z,27.31
2023-05-02T10:40:13.067Z,27.42
2023-05-02T10:42:45.998Z,27.12
2023-05-02T10:45:31.398Z,27.37
2023-05-02T10:48:21.004Z,26.92
2023-05-02T10:50:52.372Z,26.83
2023-05-02T10:53:40.314Z,26.41
2023-05-02T10:56:29.306Z,26.75
2023-05-02T10:59:20.286Z,26.86
2023-05-02T11:01:51.131Z,26.35
2023-05-02T11:04:22.085Z,26.26
2023-05-02T11:07:10.151Z,26.14
2023-05-02T11:09:40.898Z,26.13
2023-05-02T11:12:11.717Z,25.85
2023-05-02T11:14:47.886Z,26.03
2023-05-02T11:17:21.139Z,25.66
2023-05-02T11:20:09.269Z,25.63
2023-05-02T11:22:40.638Z,25.58
2023-05-02T11:25:11.807Z,25.43
2023-05-02T11:27:44.149Z,25.35
2023-05-02T11:30:15.730Z,25.36
2023-05-02T11:33:04.067Z,25.38
2023-05-02T11:35:34.902Z,25.13
2023-05-02T11:38:06.588Z,25.22
2023-05-02T11:40:37.569Z,24.93
2023-05-02T11:43:15.443Z,24.97
2023-05-02T11:45:46.491Z,25.36
2023-05-02T11:48:18.018Z,25.05
2023-05-02T11:50:50.662Z,25.12
2023-05-02T11:53:23.696Z,24.83
2023-05-02T11:55:55.126Z,24.37
2023-05-02T11:58:26.431Z,24.11
2023-05-02T12:00:57.383Z,24.10
2023-05-02T12:03:31.877Z,24.30
2023-05-02T12:06:12.418Z,24.36
2023-05-02T12:08:44.258Z,24.20
2023-05-02T12:11:16.961Z,24.16
2023-05-02T12:13:48.975Z,24.19
2023-05-02T12:16:20.066Z,23.82
2023-05-02T12:18:50.917Z,23.93
2023-05-02T12:21:21.741Z,23.78
2023-05-02T12:23:52.415Z,23.90
2023-05-02T12:26:25.476Z,23.79
2023-05-02T12:28:56.760Z,23.89
2023-05-02T12:31:29.458Z,23.38
2023-05-02T12:34:01.540Z,23.28
2023-05-02T12:36:33.847Z,23.29
2023-05-02T12:39:06.254Z,23.50
2023-05-02T12:41:37.823Z,23.59
2023-05-02T12:44:08.665Z,23.40
2023-05-02T12:46:39.645Z,23.46
2023-05-02T12:49:12.483Z,23.53
2023-05-02T12:51:43.995Z,23.37
2023-05-02T12:54:22.698Z,23.42
2023-05-02T12:56:53.500Z,23.43
2023-05-02T12:59:28.862Z,23.38
2023-05-02T13:01:59.648Z,23.08
2023-05-02T13:04:37.458Z,23.04
2023-05-02T13:07:08.366Z,22.90
2023-05-02T13:09:39.226Z,23.01
2023-05-02T13:12:10.283Z,23.04
2023-05-02T13:14:41.400Z,22.69
2023-05-02T13:17:12.287Z,22.88
2023-05-02T13:20:01.022Z,22.78
2023-05-02T13:22:32.935Z,22.89
2023-05-02T13:25:03.969Z,22.87
2023-05-02T13:27:35.586Z,22.81
2023-05-02T13:30:09.068Z,22.72
2023-05-02T13:32:41.007Z,22.58
2023-05-02T13:35:14.471Z,22.67
2023-05-02T13:37:45.206Z,22.60
2023-05-02T13:40:16.229Z,22.63
2023-05-02T13:42:46.906Z,22.33
2023-05-02T13:45:17.921Z,22.10
2023-05-02T13:47:48.811Z,22.41
2023-05-02T13:50:19.743Z,22.57
2023-05-02T13:52:50.703Z,22.18
2023-05-02T13:55:21.735Z,22.30
2023-05-02T13:57:52.482Z,22.50
2023-05-02T14:00:23.262Z,22.36
2023-05-02T14:02:54.469Z,22.14
2023-05-02T14:05:25.384Z,22.28
2023-05-02T14:07:56.261Z,22.03
2023-05-02T14:10:27.078Z,22.12
2023-05-02T14:12:57.793Z,22.18
2023-05-02T14:15:28.692Z,22.30
2023-05-02T14:17:59.487Z,22.17
2023-05-02T14:20:30.406Z,22.10
2023-05-02T14:23:01.463Z,22.20
2023-05-02T14:25:32.317Z,22.24
2023-05-02T14:28:02.917Z,22.31
2023-05-02T14:34:30.698Z,22.14
2023-05-02T14:37:01.534Z,22.17
2023-05-02T14:39:32.314Z,22.36
2023-05-02T14:42:04.695Z,22.27
2023-05-02T14:44:35.697Z,22.21
2023-05-02T14:47:06.822Z,22.06
2023-05-02T14:49:37.915Z,22.38
2023-05-02T14:52:09.169Z,22.33
2023-05-02T14:54:40.094Z,22.24
2023-05-02T14:57:11.362Z,22.17
2023-05-02T14:59:43.068Z,22.19
2023-05-02T15:02:13.835Z,22.33
2023-05-02T15:04:45.155Z,22.38
2023-05-02T15:07:16.731Z,22.45
2023-05-02T15:09:48.078Z,22.44
2023-05-02T15:12:18.861Z,22.54
2023-05-02T15:14:49.448Z,22.54
2023-05-02T15:17:20.285Z,22.65
2023-05-02T15:19:51.305Z,22.79
2023-05-02T15:22:22.730Z,22.76
2023-05-02T15:24:53.663Z,22.93
2023-05-02T15:27:24.484Z,22.86
2023-05-02T15:29:55.336Z,22.93
2023-05-02T15:32:26.315Z,23.07
2023-05-02T15:34:57.270Z,23.07
2023-05-02T15:37:28.144Z,23.23
2023-05-02T15:40:00.031Z,23.19
2023-05-02T15:42:31.128Z,23.12
2023-05-02T15:45:01.830Z,23.29
2023-05-02T15:47:32.697Z,23.33
2023-05-02T15:50:04.969Z,23.27
2023-05-02T15:52:36.228Z,23.38
2023-05-02T15:55:10.265Z,23.53
2023-05-02T15:57:41.087Z,23.41
2023-05-02T16:00:17.049Z,23.49
2023-05-02T16:02:47.925Z,23.68
2023-05-02T16:05:18.994Z,23.90
2023-05-02T16:07:49.878Z,23.74
2023-05-02T16:10:20.767Z,23.85
2023-05-02T16:12:51.610Z,23.99
2023-05-02T16:15:22.668Z,24.14
2023-05-02T16:17:53.618Z,24.30
2023-05-02T16:20:24.495Z,24.87
2023-05-02T16:22:55.416Z,25.04
2023-05-02T16:25:27.242Z,25.34
2023-05-02T16:27:58.165Z,25.61
2023-05-02T16:30:29.108Z,25.82
2023-05-02T16:32:59.785Z,26.05
2023-05-02T16:35:30.805Z,26.06
2023-05-02T16:38:01.778Z,26.20
2023-05-02T16:40:32.632Z,26.36
2023-05-02T16:43:03.759Z,26.47
2023-05-02T16:45:34.633Z,26.61
2023-05-02T16:48:05.927Z,26.82
2023-05-02T16:50:37.011Z,26.82
2023-05-02T16:53:08.239Z,26.99
2023-05-02T16:55:39.672Z,27.07
2023-05-02T16:58:10.649Z,27.29
2023-05-02T17:00:41.677Z,27.29
2023-05-02T17:03:12.902Z,27.54
2023-05-02T17:05:43.965Z,27.41
2023-05-02T17:08:17.074Z,27.64
2023-05-02T17:10:51.629Z,27.68
2023-05-02T17:13:22.439Z,27.77
2023-05-02T17:15:54.120Z,27.72
2023-05-02T17:18:27.068Z,28.01
2023-05-02T17:20:58.028Z,28.03
2023-05-02T17:23:31.040Z,28.10
2023-05-02T17:26:01.946Z,28.11
2023-05-02T17:28:32.908Z,28.27
2023-05-02T17:31:04.198Z,28.20
2023-05-02T17:33:35.551Z,28.37
2023-05-02T17:36:07.022Z,28.34
2023-05-02T17:38:38.047Z,28.42
2023-05-02T17:41:08.824Z,28.39
2023-05-02T17:43:40.509Z,28.49
2023-05-02T17:46:11.368Z,28.53
2023-05-02T17:48:42.337Z,28.88
2023-05-02T17:51:13.224Z,28.77
2023-05-02T17:53:44.041Z,29.03
2023-05-02T17:56:18.975Z,29.05
2023-05-02T17:58:49.946Z,29.13
2023-05-02T18:01:20.789Z,29.11
2023-05-02T18:03:51.857Z,29.21
2023-05-02T18:06:22.836Z,29.23
2023-05-02T18:08:53.678Z,29.23
2023-05-02T18:11:26.825Z,29.36
2023-05-02T18:14:01.959Z,29.45
2023-05-02T18:16:34.418Z,29.52
2023-05-02T18:19:05.358Z,29.64
2023-05-02T18:21:37.711Z,29.63
2023-05-02T18:24:08.998Z,29.89
2023-05-02T18:26:39.923Z,29.90
2023-05-02T18:29:10.773Z,30.07
2023-05-02T18:31:41.726Z,30.08
2023-05-02T18:34:12.756Z,30.19
2023-05-02T18:36:45.258Z,30.27
2023-05-02T18:39:16.281Z,30.33
2023-05-02T18:41:47.167Z,30.44
2023-05-02T18:44:18.101Z,30.57
2023-05-02T18:46:49.432Z,30.62
2023-05-02T18:49:21.121Z,30.66
2023-05-02T18:51:54.454Z,30.89
2023-05-02T18:54:26.543Z,30.88
2023-05-02T18:56:57.524Z,30.93
2023-05-02T18:59:28.581Z,31.07
2023-05-02T19:02:02.516Z,31.12
2023-05-02T19:04:35.357Z,31.19
2023-05-02T19:07:06.322Z,31.26
2023-05-02T19:09:37.341Z,31.27
2023-05-02T19:12:08.218Z,31.35
2023-05-02T19:14:39.784Z,31.39
2023-05-02T19:17:12.240Z,31.45
2023-05-02T19:19:43.230Z,31.46
2023-05-02T19:22:15.209Z,31.51
2023-05-02T19:24:46.504Z,31.61
2023-05-02T19:27:17.438Z,31.66
2023-05-02T19:29:48.394Z,31.68
2023-05-02T19:32:19.284Z,31.69
2023-05-02T19:34:50.414Z,31.75
2023-05-02T19:37:21.161Z,31.74
2023-05-02T19:39:53.928Z,31.83
2023-05-02T19:42:24.749Z,31.80
2023-05-02T19:44:55.586Z,31.88
2023-05-02T19:47:27.811Z,31.99
2023-05-02T19:49:58.762Z,32.00
2023-05-02T19:52:29.611Z,32.02
2023-05-02T19:55:02.195Z,32.08
2023-05-02T19:57:33.319Z,32.09
2023-05-02T20:00:06.358Z,32.04
2023-05-02T20:02:37.408Z,32.13
2023-05-02T20:05:09.308Z,32.09
2023-05-02T20:07:40.114Z,32.23
2023-05-02T20:10:12.083Z,32.27
2023-05-02T20:12:44.985Z,32.29
2023-05-02T20:15:16.491Z,32.34
2023-05-02T20:17:47.688Z,32.27
2023-05-02T20:20:18.661Z,32.41
2023-05-02T20:22:49.514Z,32.43
2023-05-02T20:25:20.399Z,32.44
2023-05-02T20:27:51.551Z,32.44
2023-05-02T20:30:22.493Z,32.43
2023-05-02T20:32:53.461Z,32.55
2023-05-02T20:35:24.304Z,32.52
2023-05-02T20:37:55.212Z,32.58
2023-05-02T20:40:27.854Z,32.63
2023-05-02T20:43:01.481Z,32.71
2023-05-02T20:45:32.284Z,32.66
2023-05-02T20:48:03.056Z,32.71
2023-05-02T20:50:34.000Z,32.80
2023-05-02T20:53:04.788Z,32.81
2023-05-02T20:55:36.053Z,32.88
2023-05-02T20:58:06.830Z,32.99
2023-05-02T21:00:37.802Z,32.99
2023-05-02T21:03:08.788Z,33.13
2023-05-02T21:05:39.647Z,33.24
2023-05-02T21:08:10.347Z,33.37
2023-05-02T21:10:41.082Z,33.36
2023-05-02T21:13:11.822Z,33.50
2023-05-02T21:15:42.600Z,33.53
2023-05-02T21:18:13.489Z,33.55
2023-05-02T21:20:44.398Z,33.72
2023-05-02T21:23:15.370Z,33.85
2023-05-02T21:25:46.041Z,33.71
2023-05-02T21:28:16.840Z,33.95
2023-05-02T21:30:47.592Z,33.94
2023-05-02T21:33:18.763Z,34.05
2023-05-02T21:35:49.666Z,34.12
2023-05-02T21:38:20.533Z,34.14
2023-05-02T21:40:51.378Z,34.32
2023-05-02T21:43:22.204Z,34.31
2023-05-02T21:45:53.041Z,34.35
2023-05-02T21:48:23.824Z,34.38
2023-05-02T21:50:54.684Z,34.55
2023-05-02T21:53:27.205Z,34.58
2023-05-02T21:55:57.951Z,34.62
2023-05-02T21:58:29.418Z,34.69
2023-05-02T22:01:00.993Z,34.69
2023-05-02T22:03:34.814Z,34.85
2023-05-02T22:06:06.817Z,34.90
2023-05-02T22:08:37.870Z,34.96
2023-05-02T22:11:09.576Z,34.99
2023-05-02T22:13:40.752Z,35.14
2023-05-02T22:16:12.143Z,35.09
2023-05-02T22:18:44.752Z,35.15
2023-05-02T22:21:16.146Z,35.22
2023-05-02T22:23:47.055Z,35.25
2023-05-02T22:26:17.799Z,35.17
2023-05-02T22:28:48.477Z,35.26
2023-05-02T22:31:19.492Z,35.33
2023-05-02T22:33:51.048Z,35.29
2023-05-02T22:36:21.828Z,35.31
2023-05-02T22:38:52.522Z,35.41
2023-05-02T22:41:23.224Z,35.48
2023-05-02T22:43:54.117Z,35.38
2023-05-02T22:46:24.901Z,35.37
2023-05-02T22:48:57.220Z,35.38
2023-05-02T22:51:27.870Z,35.44
2023-05-02T22:53:58.718Z,35.51
2023-05-02T22:56:29.604Z,35.49
2023-05-02T22:59:01.348Z,35.51
2023-05-02T23:01:32.076Z,35.58
2023-05-02T23:04:02.958Z,35.69
2023-05-02T23:06:33.865Z,35.71
2023-05-02T23:09:04.732Z,35.67
2023-05-02T23:11:35.726Z,35.69
2023-05-02T23:14:06.418Z,35.72
2023-05-02T23:16:37.158Z,35.78
2023-05-02T23:19:08.020Z,35.83
2023-05-02T23:21:38.752Z,35.87
2023-05-02T23:24:09.769Z,35.92
2023-05-02T23:26:40.551Z,35.87
2023-05-02T23:29:12.485Z,36.04
2023-05-02T23:31:43.279Z,36.05
2023-05-02T23:34:14.150Z,36.08
2023-05-02T23:36:44.887Z,36.19
2023-05-02T23:39:15.679Z,36.18
2023-05-02T23:41:46.387Z,36.21
2023-05-02T23:44:17.230Z,36.27
2023-05-02T23:46:47.929Z,36.37
2023-05-02T23:49:18.644Z,36.41
2023-05-02T23:51:49.771Z,36.53
2023-05-02T23:54:20.545Z,36.63
2023-05-02T23:56:51.915Z,36.71
2023-05-02T23:59:22.735Z,36.69
